Overview Statistics Trail Chart Weather Telemetry Raw packets
 

This is the latest recevied weather packets stored in our database for station/object K1NOT-WX. If no packets are shown the sender has not sent any weather packets the latest 10 day(s).

<< 31 32 33 34 35 36 37 >>
Time Temp. Humidity Pressure Rain* Wind** Luminosity Snow
1777016532 8.33° C 91% 1012.5 hPa 0 mm - - -
1777015632 8.33° C 90% 1012.5 hPa 0 mm - - -
1777014732 8.33° C 90% 1012.2 hPa 0 mm - - -
1777013832 8.89° C 88% 1012.2 hPa 0 mm - - -
1777012932 8.33° C 88% 1012.2 hPa 0 mm - - -
1777012032 8.89° C 87% 1012.5 hPa 0 mm - - -
1777011135 9.44° C 87% 1012.2 hPa 0 mm - - -
1777010232 9.44° C 85% 1012.5 hPa 0 mm - - -
1777009332 9.44° C 85% 1012.2 hPa 0 mm - - -
1777008432 9.44° C 85% 1012.2 hPa 0 mm - - -
1777007532 10° C 84% 1012.2 hPa 0 mm - - -
1777006632 10° C 85% 1012.5 hPa 0 mm - - -
1777005732 10° C 84% 1012.2 hPa 0 mm - - -
1777004832 10° C 83% 1012.2 hPa 0 mm - - -
1777003932 10° C 81% 1011.8 hPa 0 mm - - -
1777003032 10.56° C 80% 1011.5 hPa 0 mm - - -
1777002132 10.56° C 80% 1011.2 hPa 0 mm - - -
1777001233 11.11° C 79% 1011.5 hPa 0 mm - - -
1777000333 11.67° C 76% 1011.2 hPa 0 mm - - -
1776999433 12.22° C 74% 1011.2 hPa 0 mm - - -
1776998533 12.78° C 70% 1011.2 hPa 0 mm - - -
1776997633 13.33° C 69% 1011.2 hPa 0 mm - - -
1776996733 13.89° C 67% 1011.2 hPa 0 mm - - -
1776995833 14.44° C 64% 1011.5 hPa 0 mm - - -
1776994933 13.89° C 64% 1011.5 hPa 0 mm - - -

* Rain latest hour (hover to see other rain measurements)
** Current wind speed in m/s (hover to see current wind gust speed)